sensor_id;sensor_type;location;lat;lon;timestamp;pressure;altitude;pressure_sealevel;temperature;humidity
9672;BME280;4874;43.568;27.824;2023-02-19T00:03:56;98843.78;;;12.18;100.00
9672;BME280;4874;43.568;27.824;2023-02-19T00:06:25;98858.03;;;12.09;100.00
9672;BME280;4874;43.568;27.824;2023-02-19T00:08:52;98850.13;;;12.17;100.00
9672;BME280;4874;43.568;27.824;2023-02-19T00:11:21;98857.66;;;12.04;100.00
9672;BME280;4874;43.568;27.824;2023-02-19T00:13:50;98835.94;;;12.08;100.00
9672;BME280;4874;43.568;27.824;2023-02-19T00:16:19;98843.16;;;11.98;100.00
9672;BME280;4874;43.568;27.824;2023-02-19T00:18:46;98840.09;;;12.11;100.00
9672;BME280;4874;43.568;27.824;2023-02-19T00:21:14;98792.25;;;11.93;100.00
9672;BME280;4874;43.568;27.824;2023-02-19T00:23:41;98821.47;;;12.11;100.00
9672;BME280;4874;43.568;27.824;2023-02-19T00:26:11;98818.44;;;12.06;100.00
9672;BME280;4874;43.568;27.824;2023-02-19T00:28:45;98810.47;;;12.06;100.00
9672;BME280;4874;43.568;27.824;2023-02-19T00:31:21;98798.00;;;12.06;100.00
9672;BME280;4874;43.568;27.824;2023-02-19T00:33:50;98786.47;;;11.98;100.00
9672;BME280;4874;43.568;27.824;2023-02-19T00:36:18;98793.28;;;12.00;100.00
9672;BME280;4874;43.568;27.824;2023-02-19T00:38:45;98793.06;;;12.19;100.00
9672;BME280;4874;43.568;27.824;2023-02-19T00:41:14;98782.66;;;12.34;100.00
9672;BME280;4874;43.568;27.824;2023-02-19T00:43:53;98743.31;;;12.12;100.00
9672;BME280;4874;43.568;27.824;2023-02-19T00:46:26;98780.03;;;12.42;100.00
9672;BME280;4874;43.568;27.824;2023-02-19T00:48:53;98765.59;;;12.44;100.00
9672;BME280;4874;43.568;27.824;2023-02-19T00:51:22;98755.72;;;12.37;100.00
9672;BME280;4874;43.568;27.824;2023-02-19T00:53:49;98757.53;;;12.36;100.00
9672;BME280;4874;43.568;27.824;2023-02-19T00:56:16;98756.41;;;12.39;100.00
9672;BME280;4874;43.568;27.824;2023-02-19T00:58:43;98745.53;;;12.24;100.00
9672;BME280;4874;43.568;27.824;2023-02-19T01:01:09;98754.22;;;12.34;100.00
9672;BME280;4874;43.568;27.824;2023-02-19T01:03:37;98752.53;;;12.25;100.00
9672;BME280;4874;43.568;27.824;2023-02-19T01:06:05;98746.22;;;11.93;100.00
9672;BME280;4874;43.568;27.824;2023-02-19T01:08:33;98751.69;;;12.25;100.00
9672;BME280;4874;43.568;27.824;2023-02-19T01:11:00;98733.63;;;12.03;100.00
9672;BME280;4874;43.568;27.824;2023-02-19T01:13:27;98727.41;;;11.86;100.00
9672;BME280;4874;43.568;27.824;2023-02-19T01:16:06;98707.84;;;11.69;100.00
9672;BME280;4874;43.568;27.824;2023-02-19T01:18:33;98705.59;;;11.82;100.00
9672;BME280;4874;43.568;27.824;2023-02-19T01:21:10;98730.78;;;11.96;100.00
9672;BME280;4874;43.568;27.824;2023-02-19T01:23:37;98726.94;;;11.99;100.00
9672;BME280;4874;43.568;27.824;2023-02-19T01:26:06;98722.03;;;12.12;100.00
9672;BME280;4874;43.568;27.824;2023-02-19T01:28:34;98727.88;;;12.15;100.00
9672;BME280;4874;43.568;27.824;2023-02-19T01:31:02;98715.44;;;12.24;100.00
9672;BME280;4874;43.568;27.824;2023-02-19T01:33:30;98697.84;;;11.97;100.00
9672;BME280;4874;43.568;27.824;2023-02-19T01:35:57;98713.25;;;12.27;100.00
9672;BME280;4874;43.568;27.824;2023-02-19T01:38:24;98711.63;;;12.34;100.00
9672;BME280;4874;43.568;27.824;2023-02-19T01:41:00;98708.00;;;12.43;100.00
9672;BME280;4874;43.568;27.824;2023-02-19T01:43:27;98712.19;;;12.54;100.00
9672;BME280;4874;43.568;27.824;2023-02-19T01:45:53;98714.19;;;12.52;100.00
9672;BME280;4874;43.568;27.824;2023-02-19T01:48:30;98703.69;;;12.50;100.00
9672;BME280;4874;43.568;27.824;2023-02-19T01:53:28;98718.31;;;12.46;100.00
9672;BME280;4874;43.568;27.824;2023-02-19T01:55:57;98718.13;;;12.40;100.00
9672;BME280;4874;43.568;27.824;2023-02-19T01:58:28;98705.13;;;12.29;100.00
9672;BME280;4874;43.568;27.824;2023-02-19T02:00:58;98713.13;;;12.29;100.00
9672;BME280;4874;43.568;27.824;2023-02-19T02:03:25;98706.47;;;12.33;100.00
9672;BME280;4874;43.568;27.824;2023-02-19T02:05:55;98706.59;;;12.23;100.00
9672;BME280;4874;43.568;27.824;2023-02-19T02:08:25;98711.06;;;12.15;100.00
9672;BME280;4874;43.568;27.824;2023-02-19T02:11:10;98707.91;;;12.19;100.00
9672;BME280;4874;43.568;27.824;2023-02-19T02:13:38;98706.69;;;12.06;100.00
9672;BME280;4874;43.568;27.824;2023-02-19T02:31:55;98710.06;;;12.16;100.00
9672;BME280;4874;43.568;27.824;2023-02-19T02:34:26;98700.59;;;12.13;100.00
9672;BME280;4874;43.568;27.824;2023-02-19T02:36:55;98697.94;;;12.13;100.00
9672;BME280;4874;43.568;27.824;2023-02-19T02:39:25;98698.09;;;12.12;100.00
9672;BME280;4874;43.568;27.824;2023-02-19T02:41:57;98684.91;;;12.10;100.00
9672;BME280;4874;43.568;27.824;2023-02-19T02:44:43;98713.81;;;12.39;100.00
9672;BME280;4874;43.568;27.824;2023-02-19T02:47:38;98692.22;;;12.58;100.00
9672;BME280;4874;43.568;27.824;2023-02-19T02:50:27;98702.72;;;12.67;100.00
9672;BME280;4874;43.568;27.824;2023-02-19T02:53:04;98682.09;;;12.69;100.00
9672;BME280;4874;43.568;27.824;2023-02-19T02:55:52;98686.56;;;12.77;100.00
9672;BME280;4874;43.568;27.824;2023-02-19T02:58:22;98690.75;;;12.79;100.00
9672;BME280;4874;43.568;27.824;2023-02-19T03:00:55;98685.09;;;12.82;100.00
9672;BME280;4874;43.568;27.824;2023-02-19T03:03:44;98698.44;;;12.90;100.00
9672;BME280;4874;43.568;27.824;2023-02-19T03:06:16;98702.09;;;12.73;100.00
9672;BME280;4874;43.568;27.824;2023-02-19T03:09:04;98692.28;;;12.82;100.00
9672;BME280;4874;43.568;27.824;2023-02-19T03:11:33;98692.44;;;12.88;100.00
9672;BME280;4874;43.568;27.824;2023-02-19T03:14:26;98710.06;;;12.81;100.00
9672;BME280;4874;43.568;27.824;2023-02-19T03:17:21;98673.97;;;12.87;100.00
9672;BME280;4874;43.568;27.824;2023-02-19T03:20:11;98675.91;;;12.77;100.00
9672;BME280;4874;43.568;27.824;2023-02-19T03:22:41;98680.78;;;12.73;100.00
9672;BME280;4874;43.568;27.824;2023-02-19T03:25:20;98682.09;;;12.69;100.00
9672;BME280;4874;43.568;27.824;2023-02-19T03:28:08;98707.22;;;12.67;100.00
9672;BME280;4874;43.568;27.824;2023-02-19T03:30:44;98700.75;;;12.69;100.00
9672;BME280;4874;43.568;27.824;2023-02-19T03:33:16;98700.91;;;12.68;100.00
9672;BME280;4874;43.568;27.824;2023-02-19T03:35:48;98700.06;;;12.67;100.00
9672;BME280;4874;43.568;27.824;2023-02-19T03:46:44;98732.00;;;12.59;100.00
9672;BME280;4874;43.568;27.824;2023-02-19T03:49:20;98741.38;;;12.71;100.00
9672;BME280;4874;43.568;27.824;2023-02-19T03:55:05;98744.03;;;12.71;100.00
9672;BME280;4874;43.568;27.824;2023-02-19T03:57:52;98739.34;;;12.65;100.00
9672;BME280;4874;43.568;27.824;2023-02-19T04:06:11;98723.69;;;12.70;100.00
9672;BME280;4874;43.568;27.824;2023-02-19T04:08:43;98728.38;;;12.84;100.00
9672;BME280;4874;43.568;27.824;2023-02-19T04:11:13;98704.88;;;12.72;100.00
9672;BME280;4874;43.568;27.824;2023-02-19T04:13:50;98728.56;;;12.83;100.00
9672;BME280;4874;43.568;27.824;2023-02-19T04:16:22;98721.38;;;12.75;100.00
9672;BME280;4874;43.568;27.824;2023-02-19T04:18:53;98724.38;;;12.80;100.00
9672;BME280;4874;43.568;27.824;2023-02-19T04:21:22;98694.56;;;12.69;100.00
9672;BME280;4874;43.568;27.824;2023-02-19T04:23:49;98678.88;;;12.50;100.00
9672;BME280;4874;43.568;27.824;2023-02-19T04:26:16;98730.19;;;12.68;100.00
9672;BME280;4874;43.568;27.824;2023-02-19T04:28:46;98731.34;;;12.65;100.00
9672;BME280;4874;43.568;27.824;2023-02-19T04:31:13;98727.50;;;12.60;100.00
9672;BME280;4874;43.568;27.824;2023-02-19T04:33:40;98744.13;;;12.54;100.00
9672;BME280;4874;43.568;27.824;2023-02-19T04:36:08;98762.63;;;12.55;100.00
9672;BME280;4874;43.568;27.824;2023-02-19T04:38:36;98768.09;;;12.46;100.00
9672;BME280;4874;43.568;27.824;2023-02-19T04:41:02;98771.16;;;12.25;100.00
9672;BME280;4874;43.568;27.824;2023-02-19T04:43:29;98780.97;;;12.25;100.00
9672;BME280;4874;43.568;27.824;2023-02-19T04:46:00;98771.19;;;12.00;100.00
9672;BME280;4874;43.568;27.824;2023-02-19T04:48:27;98767.34;;;11.94;100.00
9672;BME280;4874;43.568;27.824;2023-02-19T04:50:54;98767.78;;;11.90;100.00
9672;BME280;4874;43.568;27.824;2023-02-19T04:53:21;98771.81;;;11.94;100.00
9672;BME280;4874;43.568;27.824;2023-02-19T04:55:48;98779.28;;;11.90;100.00
9672;BME280;4874;43.568;27.824;2023-02-19T04:58:19;98772.44;;;11.88;100.00
9672;BME280;4874;43.568;27.824;2023-02-19T05:00:50;98791.97;;;11.96;100.00
9672;BME280;4874;43.568;27.824;2023-02-19T05:03:17;98795.91;;;11.92;100.00
9672;BME280;4874;43.568;27.824;2023-02-19T05:05:43;98791.13;;;11.96;100.00
9672;BME280;4874;43.568;27.824;2023-02-19T05:08:10;98795.06;;;11.92;100.00
9672;BME280;4874;43.568;27.824;2023-02-19T05:10:37;98805.91;;;11.98;100.00
9672;BME280;4874;43.568;27.824;2023-02-19T05:13:03;98793.41;;;11.91;100.00
9672;BME280;4874;43.568;27.824;2023-02-19T05:15:30;98807.75;;;11.98;100.00
9672;BME280;4874;43.568;27.824;2023-02-19T05:17:57;98802.13;;;12.01;100.00
9672;BME280;4874;43.568;27.824;2023-02-19T05:20:24;98812.50;;;11.86;100.00
9672;BME280;4874;43.568;27.824;2023-02-19T05:22:50;98830.66;;;11.91;100.00
9672;BME280;4874;43.568;27.824;2023-02-19T05:25:17;98830.13;;;11.87;100.00
9672;BME280;4874;43.568;27.824;2023-02-19T05:27:43;98835.69;;;12.27;100.00
9672;BME280;4874;43.568;27.824;2023-02-19T05:30:11;98837.53;;;12.27;100.00
9672;BME280;4874;43.568;27.824;2023-02-19T05:32:38;98844.13;;;12.48;100.00
9672;BME280;4874;43.568;27.824;2023-02-19T05:35:05;98817.97;;;12.36;100.00
9672;BME280;4874;43.568;27.824;2023-02-19T05:37:31;98831.84;;;12.22;100.00
9672;BME280;4874;43.568;27.824;2023-02-19T05:39:58;98822.50;;;12.18;100.00
9672;BME280;4874;43.568;27.824;2023-02-19T05:42:25;98709.75;;;11.59;100.00
9672;BME280;4874;43.568;27.824;2023-02-19T05:44:51;98845.91;;;12.40;100.00
9672;BME280;4874;43.568;27.824;2023-02-19T05:47:18;98845.34;;;12.28;100.00
9672;BME280;4874;43.568;27.824;2023-02-19T05:49:45;98863.69;;;12.65;100.00
9672;BME280;4874;43.568;27.824;2023-02-19T05:52:11;98885.53;;;12.76;100.00
9672;BME280;4874;43.568;27.824;2023-02-19T05:54:38;98894.50;;;12.75;100.00
9672;BME280;4874;43.568;27.824;2023-02-19T05:57:05;98892.84;;;12.74;100.00
9672;BME280;4874;43.568;27.824;2023-02-19T05:59:31;98892.78;;;13.00;100.00
9672;BME280;4874;43.568;27.824;2023-02-19T06:01:58;98890.38;;;12.81;100.00
9672;BME280;4874;43.568;27.824;2023-02-19T06:04:24;98886.44;;;12.93;100.00
9672;BME280;4874;43.568;27.824;2023-02-19T06:06:51;98880.75;;;12.88;100.00
9672;BME280;4874;43.568;27.824;2023-02-19T06:09:18;98860.84;;;13.08;100.00
9672;BME280;4874;43.568;27.824;2023-02-19T06:11:45;98873.28;;;12.91;100.00
9672;BME280;4874;43.568;27.824;2023-02-19T06:14:12;98876.63;;;12.93;100.00
9672;BME280;4874;43.568;27.824;2023-02-19T06:16:40;98870.84;;;13.06;100.00
9672;BME280;4874;43.568;27.824;2023-02-19T06:19:06;98876.34;;;13.05;100.00
9672;BME280;4874;43.568;27.824;2023-02-19T06:21:33;98870.78;;;12.98;100.00
9672;BME280;4874;43.568;27.824;2023-02-19T06:24:04;98892.22;;;13.14;100.00
9672;BME280;4874;43.568;27.824;2023-02-19T06:26:31;98878.88;;;13.14;100.00
9672;BME280;4874;43.568;27.824;2023-02-19T06:28:58;98897.44;;;13.32;100.00
9672;BME280;4874;43.568;27.824;2023-02-19T06:31:25;98903.72;;;13.31;100.00
9672;BME280;4874;43.568;27.824;2023-02-19T06:33:52;98892.94;;;13.40;100.00
9672;BME280;4874;43.568;27.824;2023-02-19T06:36:21;98899.13;;;13.57;100.00
9672;BME280;4874;43.568;27.824;2023-02-19T06:38:47;98868.28;;;13.70;99.76
9672;BME280;4874;43.568;27.824;2023-02-19T06:41:14;98889.25;;;13.41;100.00
9672;BME280;4874;43.568;27.824;2023-02-19T06:43:41;98893.25;;;13.37;100.00
9672;BME280;4874;43.568;27.824;2023-02-19T06:46:09;98908.31;;;13.62;100.00
9672;BME280;4874;43.568;27.824;2023-02-19T06:48:38;98912.25;;;13.42;100.00
9672;BME280;4874;43.568;27.824;2023-02-19T06:51:04;98914.63;;;13.53;100.00
9672;BME280;4874;43.568;27.824;2023-02-19T06:53:31;98919.78;;;13.47;100.00
9672;BME280;4874;43.568;27.824;2023-02-19T06:56:06;98931.84;;;13.83;100.00
9672;BME280;4874;43.568;27.824;2023-02-19T06:58:34;98921.31;;;13.73;100.00
9672;BME280;4874;43.568;27.824;2023-02-19T07:01:00;98928.81;;;13.70;100.00
9672;BME280;4874;43.568;27.824;2023-02-19T07:03:27;98921.97;;;13.67;100.00
9672;BME280;4874;43.568;27.824;2023-02-19T07:05:54;98927.50;;;13.90;100.00
9672;BME280;4874;43.568;27.824;2023-02-19T07:08:20;98928.28;;;13.50;100.00
9672;BME280;4874;43.568;27.824;2023-02-19T07:10:54;98941.50;;;13.92;100.00
9672;BME280;4874;43.568;27.824;2023-02-19T07:13:23;98948.34;;;13.86;100.00
9672;BME280;4874;43.568;27.824;2023-02-19T07:15:50;98956.00;;;14.05;100.00
9672;BME280;4874;43.568;27.824;2023-02-19T07:18:17;98961.69;;;13.94;100.00
9672;BME280;4874;43.568;27.824;2023-02-19T07:20:44;98959.06;;;14.27;100.00
9672;BME280;4874;43.568;27.824;2023-02-19T07:23:11;98947.00;;;14.47;100.00
9672;BME280;4874;43.568;27.824;2023-02-19T07:25:38;98960.88;;;14.42;99.32
9672;BME280;4874;43.568;27.824;2023-02-19T07:28:05;98955.22;;;14.05;100.00
9672;BME280;4874;43.568;27.824;2023-02-19T07:30:33;98945.50;;;14.52;98.31
9672;BME280;4874;43.568;27.824;2023-02-19T07:33:00;98963.31;;;14.76;98.14
9672;BME280;4874;43.568;27.824;2023-02-19T07:35:26;98901.47;;;14.08;98.51
9672;BME280;4874;43.568;27.824;2023-02-19T07:37:53;98969.00;;;14.73;97.12
9672;BME280;4874;43.568;27.824;2023-02-19T07:40:20;98969.22;;;14.63;97.74
9672;BME280;4874;43.568;27.824;2023-02-19T07:42:47;98984.72;;;14.19;99.06
9672;BME280;4874;43.568;27.824;2023-02-19T07:45:13;98971.41;;;14.44;99.14
9672;BME280;4874;43.568;27.824;2023-02-19T07:47:41;98953.66;;;14.75;97.89
9672;BME280;4874;43.568;27.824;2023-02-19T07:50:07;98961.19;;;14.63;97.90
9672;BME280;4874;43.568;27.824;2023-02-19T07:52:34;98963.22;;;14.37;98.47
9672;BME280;4874;43.568;27.824;2023-02-19T07:55:02;98960.19;;;14.64;97.30
9672;BME280;4874;43.568;27.824;2023-02-19T07:57:29;98963.81;;;14.79;97.51
9672;BME280;4874;43.568;27.824;2023-02-19T07:59:56;98936.09;;;14.80;96.67
9672;BME280;4874;43.568;27.824;2023-02-19T08:02:24;98963.59;;;14.97;96.40
9672;BME280;4874;43.568;27.824;2023-02-19T08:05:09;98982.84;;;15.39;94.88
9672;BME280;4874;43.568;27.824;2023-02-19T08:07:36;98954.19;;;15.56;94.19
9672;BME280;4874;43.568;27.824;2023-02-19T08:10:04;98972.84;;;15.33;94.45
9672;BME280;4874;43.568;27.824;2023-02-19T08:12:56;98975.91;;;15.22;92.82
9672;BME280;4874;43.568;27.824;2023-02-19T08:15:41;98965.25;;;15.06;93.50
9672;BME280;4874;43.568;27.824;2023-02-19T08:18:09;98973.75;;;15.56;93.00
9672;BME280;4874;43.568;27.824;2023-02-19T08:20:36;98956.69;;;15.57;92.73
9672;BME280;4874;43.568;27.824;2023-02-19T08:23:03;98958.44;;;15.34;92.14
9672;BME280;4874;43.568;27.824;2023-02-19T08:25:30;98953.50;;;15.23;92.04
9672;BME280;4874;43.568;27.824;2023-02-19T08:27:57;98959.81;;;15.30;93.65
9672;BME280;4874;43.568;27.824;2023-02-19T08:30:26;98962.66;;;15.28;93.12
9672;BME280;4874;43.568;27.824;2023-02-19T08:32:54;98927.63;;;15.54;92.24
9672;BME280;4874;43.568;27.824;2023-02-19T08:35:21;98953.09;;;15.73;92.10
9672;BME280;4874;43.568;27.824;2023-02-19T08:37:47;98948.41;;;15.44;91.79
9672;BME280;4874;43.568;27.824;2023-02-19T08:40:14;98942.06;;;15.37;90.56
9672;BME280;4874;43.568;27.824;2023-02-19T08:42:41;98956.63;;;15.43;92.31
9672;BME280;4874;43.568;27.824;2023-02-19T08:45:08;98971.91;;;15.57;92.27
9672;BME280;4874;43.568;27.824;2023-02-19T08:47:35;98952.53;;;15.77;91.32
9672;BME280;4874;43.568;27.824;2023-02-19T08:50:04;98964.28;;;15.46;92.17
9672;BME280;4874;43.568;27.824;2023-02-19T08:52:32;98960.81;;;15.68;91.83
9672;BME280;4874;43.568;27.824;2023-02-19T08:54:58;98949.56;;;16.17;90.17
9672;BME280;4874;43.568;27.824;2023-02-19T08:57:25;98943.91;;;15.67;91.08
9672;BME280;4874;43.568;27.824;2023-02-19T08:59:55;98956.94;;;15.93;90.92
9672;BME280;4874;43.568;27.824;2023-02-19T09:02:25;98942.44;;;15.65;91.31
9672;BME280;4874;43.568;27.824;2023-02-19T09:04:51;98940.84;;;16.01;89.95
9672;BME280;4874;43.568;27.824;2023-02-19T09:07:18;98938.19;;;16.15;89.66
9672;BME280;4874;43.568;27.824;2023-02-19T09:09:45;98943.34;;;16.77;87.65
9672;BME280;4874;43.568;27.824;2023-02-19T09:12:12;98932.34;;;16.86;86.79
9672;BME280;4874;43.568;27.824;2023-02-19T09:14:39;98946.28;;;16.30;85.56
9672;BME280;4874;43.568;27.824;2023-02-19T09:17:07;98921.44;;;16.59;84.91
9672;BME280;4874;43.568;27.824;2023-02-19T09:19:35;98928.00;;;16.85;84.58
9672;BME280;4874;43.568;27.824;2023-02-19T09:22:03;98940.38;;;16.72;83.88
9672;BME280;4874;43.568;27.824;2023-02-19T09:24:30;98936.25;;;16.98;82.68
9672;BME280;4874;43.568;27.824;2023-02-19T09:26:57;98939.09;;;16.82;80.96
9672;BME280;4874;43.568;27.824;2023-02-19T09:29:26;98942.53;;;17.05;81.48
9672;BME280;4874;43.568;27.824;2023-02-19T09:31:57;98938.16;;;16.61;83.17
9672;BME280;4874;43.568;27.824;2023-02-19T09:34:26;98921.97;;;16.69;83.21
9672;BME280;4874;43.568;27.824;2023-02-19T09:36:54;98944.59;;;17.39;82.29
9672;BME280;4874;43.568;27.824;2023-02-19T09:39:20;98942.88;;;17.46;80.43
9672;BME280;4874;43.568;27.824;2023-02-19T09:41:50;98943.78;;;17.09;81.00
9672;BME280;4874;43.568;27.824;2023-02-19T09:44:31;98928.63;;;17.16;80.05
9672;BME280;4874;43.568;27.824;2023-02-19T09:47:00;98939.91;;;17.26;79.65
9672;BME280;4874;43.568;27.824;2023-02-19T09:49:37;98937.13;;;17.34;78.34
9672;BME280;4874;43.568;27.824;2023-02-19T09:54:35;98949.69;;;17.34;76.69
9672;BME280;4874;43.568;27.824;2023-02-19T09:57:04;98935.56;;;17.11;77.30
9672;BME280;4874;43.568;27.824;2023-02-19T09:59:45;98948.41;;;17.30;76.72
9672;BME280;4874;43.568;27.824;2023-02-19T10:02:19;98931.25;;;17.60;76.77
9672;BME280;4874;43.568;27.824;2023-02-19T10:04:47;98952.03;;;18.08;75.64
9672;BME280;4874;43.568;27.824;2023-02-19T10:07:25;98944.78;;;17.88;75.45
9672;BME280;4874;43.568;27.824;2023-02-19T10:09:59;98940.13;;;17.96;75.28
9672;BME280;4874;43.568;27.824;2023-02-19T10:12:29;98932.31;;;17.80;74.75
9672;BME280;4874;43.568;27.824;2023-02-19T10:15:29;98931.00;;;17.76;74.56
9672;BME280;4874;43.568;27.824;2023-02-19T10:17:57;98944.22;;;18.13;73.77
9672;BME280;4874;43.568;27.824;2023-02-19T10:20:25;98923.97;;;18.38;71.89
9672;BME280;4874;43.568;27.824;2023-02-19T10:23:03;98914.00;;;18.60;70.15
9672;BME280;4874;43.568;27.824;2023-02-19T10:25:32;98922.88;;;18.12;71.56
9672;BME280;4874;43.568;27.824;2023-02-19T10:28:00;98912.63;;;17.94;72.08
9672;BME280;4874;43.568;27.824;2023-02-19T10:30:31;98903.84;;;18.90;72.00
9672;BME280;4874;43.568;27.824;2023-02-19T10:35:38;98905.91;;;18.32;70.89
9672;BME280;4874;43.568;27.824;2023-02-19T10:38:18;98880.34;;;17.88;71.19
9672;BME280;4874;43.568;27.824;2023-02-19T10:40:46;98890.13;;;18.23;70.07
9672;BME280;4874;43.568;27.824;2023-02-19T10:43:22;98884.63;;;18.58;69.34
9672;BME280;4874;43.568;27.824;2023-02-19T10:45:58;98880.78;;;18.40;69.02
9672;BME280;4874;43.568;27.824;2023-02-19T10:48:30;98872.13;;;19.19;67.70
9672;BME280;4874;43.568;27.824;2023-02-19T10:51:06;98864.88;;;18.79;67.80
9672;BME280;4874;43.568;27.824;2023-02-19T10:53:43;98869.72;;;19.37;66.97
9672;BME280;4874;43.568;27.824;2023-02-19T10:56:24;98870.88;;;19.15;66.37
9672;BME280;4874;43.568;27.824;2023-02-19T10:58:52;98865.94;;;18.78;66.26
9672;BME280;4874;43.568;27.824;2023-02-19T11:01:23;98867.28;;;19.02;65.25
9672;BME280;4874;43.568;27.824;2023-02-19T11:04:14;98840.09;;;18.84;65.10
9672;BME280;4874;43.568;27.824;2023-02-19T11:06:42;98840.19;;;19.57;63.73
9672;BME280;4874;43.568;27.824;2023-02-19T11:09:38;98835.56;;;19.31;63.87
9672;BME280;4874;43.568;27.824;2023-02-19T11:12:06;98819.25;;;18.92;63.33
9672;BME280;4874;43.568;27.824;2023-02-19T11:14:35;98835.22;;;19.00;63.79
9672;BME280;4874;43.568;27.824;2023-02-19T11:17:03;98825.00;;;18.48;63.94
9672;BME280;4874;43.568;27.824;2023-02-19T11:19:37;98823.03;;;18.63;63.88
9672;BME280;4874;43.568;27.824;2023-02-19T11:22:37;98823.44;;;19.08;62.45
9672;BME280;4874;43.568;27.824;2023-02-19T11:28:04;98818.16;;;19.34;61.75
9672;BME280;4874;43.568;27.824;2023-02-19T11:30:45;98812.00;;;19.85;60.57
9672;BME280;4874;43.568;27.824;2023-02-19T11:35:46;98815.84;;;19.24;59.00
9672;BME280;4874;43.568;27.824;2023-02-19T11:38:15;98823.78;;;19.45;57.95
9672;BME280;4874;43.568;27.824;2023-02-19T11:40:49;98824.09;;;19.16;59.98
9672;BME280;4874;43.568;27.824;2023-02-19T11:46:08;98820.19;;;18.71;58.92
9672;BME280;4874;43.568;27.824;2023-02-19T11:51:50;98833.41;;;19.14;60.10
9672;BME280;4874;43.568;27.824;2023-02-19T11:54:43;98777.94;;;18.65;60.43
9672;BME280;4874;43.568;27.824;2023-02-19T11:57:27;98808.75;;;19.17;60.50
9672;BME280;4874;43.568;27.824;2023-02-19T12:20:10;98791.09;;;18.47;67.45
9672;BME280;4874;43.568;27.824;2023-02-19T12:22:48;98782.44;;;18.52;67.90
9672;BME280;4874;43.568;27.824;2023-02-19T12:25:29;98782.44;;;18.52;67.71
9672;BME280;4874;43.568;27.824;2023-02-19T12:37:00;98767.38;;;18.30;66.68
9672;BME280;4874;43.568;27.824;2023-02-19T12:40:29;98765.09;;;18.54;65.92
9672;BME280;4874;43.568;27.824;2023-02-19T12:45:48;98763.00;;;18.22;64.72
9672;BME280;4874;43.568;27.824;2023-02-19T12:48:44;98759.63;;;18.41;64.75
9672;BME280;4874;43.568;27.824;2023-02-19T12:53:47;98757.59;;;18.50;65.03
9672;BME280;4874;43.568;27.824;2023-02-19T12:56:19;98746.63;;;18.51;64.88
9672;BME280;4874;43.568;27.824;2023-02-19T12:59:12;98719.13;;;17.81;65.74
9672;BME280;4874;43.568;27.824;2023-02-19T13:01:54;98736.44;;;18.00;66.50
9672;BME280;4874;43.568;27.824;2023-02-19T13:07:03;98735.81;;;18.04;66.64
9672;BME280;4874;43.568;27.824;2023-02-19T13:09:37;98738.72;;;18.03;66.71
9672;BME280;4874;43.568;27.824;2023-02-19T13:12:20;98742.84;;;18.05;67.16
9672;BME280;4874;43.568;27.824;2023-02-19T13:17:49;98727.19;;;18.49;66.97
9672;BME280;4874;43.568;27.824;2023-02-19T13:20:37;98735.75;;;18.66;67.34
9672;BME280;4874;43.568;27.824;2023-02-19T13:32:05;98710.16;;;18.36;65.67
9672;BME280;4874;43.568;27.824;2023-02-19T13:34:46;98714.59;;;18.50;65.44
9672;BME280;4874;43.568;27.824;2023-02-19T13:37:16;98699.94;;;18.59;64.79
9672;BME280;4874;43.568;27.824;2023-02-19T13:39:51;98708.47;;;18.69;64.74
9672;BME280;4874;43.568;27.824;2023-02-19T13:42:38;98719.38;;;18.54;64.04
9672;BME280;4874;43.568;27.824;2023-02-19T13:45:05;98720.91;;;18.83;64.24
9672;BME280;4874;43.568;27.824;2023-02-19T13:50:29;98718.00;;;18.71;64.12
9672;BME280;4874;43.568;27.824;2023-02-19T13:53:01;98713.56;;;18.51;63.94
9672;BME280;4874;43.568;27.824;2023-02-19T13:55:50;98710.09;;;18.70;64.45
9672;BME280;4874;43.568;27.824;2023-02-19T13:58:36;98718.59;;;18.67;63.76
9672;BME280;4874;43.568;27.824;2023-02-19T14:01:08;98720.84;;;18.63;64.03
9672;BME280;4874;43.568;27.824;2023-02-19T14:06:05;98703.09;;;18.75;63.33
9672;BME280;4874;43.568;27.824;2023-02-19T14:11:16;98713.94;;;19.15;63.02
9672;BME280;4874;43.568;27.824;2023-02-19T14:19:13;98703.47;;;18.59;64.41
9672;BME280;4874;43.568;27.824;2023-02-19T14:21:40;98726.44;;;18.28;65.28
9672;BME280;4874;43.568;27.824;2023-02-19T14:24:13;98696.44;;;18.24;65.15
9672;BME280;4874;43.568;27.824;2023-02-19T14:26:40;98692.94;;;18.24;64.93
9672;BME280;4874;43.568;27.824;2023-02-19T14:29:08;98697.63;;;17.81;64.97
9672;BME280;4874;43.568;27.824;2023-02-19T14:31:39;98683.69;;;17.92;65.23
9672;BME280;4874;43.568;27.824;2023-02-19T14:34:16;98680.75;;;17.87;65.67
9672;BME280;4874;43.568;27.824;2023-02-19T14:36:55;98688.47;;;18.03;66.69
9672;BME280;4874;43.568;27.824;2023-02-19T14:39:30;98704.78;;;18.02;66.88
9672;BME280;4874;43.568;27.824;2023-02-19T14:42:05;98696.91;;;17.94;66.83
9672;BME280;4874;43.568;27.824;2023-02-19T14:44:49;98712.91;;;18.08;66.79
9672;BME280;4874;43.568;27.824;2023-02-19T14:47:20;98699.06;;;18.05;66.53
9672;BME280;4874;43.568;27.824;2023-02-19T14:49:54;98691.09;;;17.90;67.12
9672;BME280;4874;43.568;27.824;2023-02-19T14:52:28;98669.22;;;17.66;65.97
9672;BME280;4874;43.568;27.824;2023-02-19T14:57:51;98695.16;;;17.80;66.44
9672;BME280;4874;43.568;27.824;2023-02-19T15:00:24;98689.06;;;17.65;66.91
9672;BME280;4874;43.568;27.824;2023-02-19T15:02:53;98670.63;;;17.34;67.04
9672;BME280;4874;43.568;27.824;2023-02-19T15:05:26;98687.22;;;17.44;67.48
9672;BME280;4874;43.568;27.824;2023-02-19T15:07:56;98693.91;;;17.27;68.06
9672;BME280;4874;43.568;27.824;2023-02-19T15:10:26;98692.69;;;17.29;69.03
9672;BME280;4874;43.568;27.824;2023-02-19T15:13:03;98723.84;;;17.09;69.84
9672;BME280;4874;43.568;27.824;2023-02-19T15:15:37;98669.25;;;16.75;70.68
9672;BME280;4874;43.568;27.824;2023-02-19T15:18:17;98687.38;;;16.94;71.46
9672;BME280;4874;43.568;27.824;2023-02-19T15:20:45;98705.44;;;16.85;72.18
9672;BME280;4874;43.568;27.824;2023-02-19T15:23:19;98699.38;;;16.77;72.58
9672;BME280;4874;43.568;27.824;2023-02-19T15:25:47;98715.25;;;16.78;72.76
9672;BME280;4874;43.568;27.824;2023-02-19T15:33:25;98703.88;;;16.55;75.12